sensor_id;sensor_type;location;lat;lon;timestamp;P1;durP1;ratioP1;P2;durP2;ratioP2
15976;SDS011;8091;51.914;12.786;2022-08-18T00:01:59;10.90;;;6.70;;
15976;SDS011;8091;51.914;12.786;2022-08-18T00:04:28;8.68;;;6.43;;
15976;SDS011;8091;51.914;12.786;2022-08-18T00:06:54;10.27;;;7.32;;
15976;SDS011;8091;51.914;12.786;2022-08-18T00:09:20;8.68;;;6.95;;
15976;SDS011;8091;51.914;12.786;2022-08-18T00:11:45;11.27;;;7.25;;
15976;SDS011;8091;51.914;12.786;2022-08-18T00:14:12;8.10;;;7.30;;
15976;SDS011;8091;51.914;12.786;2022-08-18T00:16:41;12.25;;;7.03;;
15976;SDS011;8091;51.914;12.786;2022-08-18T00:19:07;7.85;;;7.10;;
15976;SDS011;8091;51.914;12.786;2022-08-18T00:21:32;9.35;;;6.88;;
15976;SDS011;8091;51.914;12.786;2022-08-18T00:23:58;10.85;;;7.57;;
15976;SDS011;8091;51.914;12.786;2022-08-18T00:26:24;8.40;;;7.60;;
15976;SDS011;8091;51.914;12.786;2022-08-18T00:28:49;8.77;;;7.20;;
15976;SDS011;8091;51.914;12.786;2022-08-18T00:31:15;11.85;;;6.82;;
15976;SDS011;8091;51.914;12.786;2022-08-18T00:33:40;9.18;;;7.30;;
15976;SDS011;8091;51.914;12.786;2022-08-18T00:36:07;8.93;;;7.45;;
15976;SDS011;8091;51.914;12.786;2022-08-18T00:38:33;9.20;;;7.43;;
15976;SDS011;8091;51.914;12.786;2022-08-18T00:40:59;8.95;;;7.25;;
15976;SDS011;8091;51.914;12.786;2022-08-18T00:45:51;9.30;;;7.93;;
15976;SDS011;8091;51.914;12.786;2022-08-18T00:48:17;10.20;;;7.03;;
15976;SDS011;8091;51.914;12.786;2022-08-18T00:51:06;7.68;;;6.82;;
15976;SDS011;8091;51.914;12.786;2022-08-18T00:53:37;8.35;;;7.55;;
15976;SDS011;8091;51.914;12.786;2022-08-18T00:56:11;8.90;;;7.35;;
15976;SDS011;8091;51.914;12.786;2022-08-18T00:58:43;8.77;;;7.88;;
15976;SDS011;8091;51.914;12.786;2022-08-18T01:01:13;8.75;;;7.70;;
15976;SDS011;8091;51.914;12.786;2022-08-18T01:03:41;13.68;;;8.00;;
15976;SDS011;8091;51.914;12.786;2022-08-18T01:06:16;11.48;;;7.88;;
15976;SDS011;8091;51.914;12.786;2022-08-18T01:08:51;8.43;;;7.63;;
15976;SDS011;8091;51.914;12.786;2022-08-18T01:11:18;8.65;;;7.82;;
15976;SDS011;8091;51.914;12.786;2022-08-18T01:13:44;11.90;;;8.10;;
15976;SDS011;8091;51.914;12.786;2022-08-18T01:16:09;8.63;;;7.55;;
15976;SDS011;8091;51.914;12.786;2022-08-18T01:18:54;13.45;;;8.63;;
15976;SDS011;8091;51.914;12.786;2022-08-18T01:21:43;11.27;;;7.28;;
15976;SDS011;8091;51.914;12.786;2022-08-18T01:24:20;11.88;;;8.45;;
15976;SDS011;8091;51.914;12.786;2022-08-18T01:27:18;8.35;;;7.55;;
15976;SDS011;8091;51.914;12.786;2022-08-18T01:29:44;9.30;;;7.82;;
15976;SDS011;8091;51.914;12.786;2022-08-18T01:32:13;8.60;;;7.78;;
15976;SDS011;8091;51.914;12.786;2022-08-18T01:34:44;10.00;;;8.60;;
15976;SDS011;8091;51.914;12.786;2022-08-18T01:37:12;8.63;;;7.72;;
15976;SDS011;8091;51.914;12.786;2022-08-18T01:39:39;12.00;;;9.10;;
15976;SDS011;8091;51.914;12.786;2022-08-18T01:42:05;9.48;;;7.75;;
15976;SDS011;8091;51.914;12.786;2022-08-18T01:44:30;9.38;;;8.32;;
15976;SDS011;8091;51.914;12.786;2022-08-18T01:46:57;9.68;;;8.55;;
15976;SDS011;8091;51.914;12.786;2022-08-18T01:49:23;11.70;;;8.50;;
15976;SDS011;8091;51.914;12.786;2022-08-18T01:51:49;10.30;;;8.57;;
15976;SDS011;8091;51.914;12.786;2022-08-18T01:54:16;10.35;;;9.30;;
15976;SDS011;8091;51.914;12.786;2022-08-18T01:56:42;11.18;;;8.43;;
15976;SDS011;8091;51.914;12.786;2022-08-18T01:59:08;20.92;;;8.88;;
15976;SDS011;8091;51.914;12.786;2022-08-18T02:01:37;9.50;;;8.60;;
15976;SDS011;8091;51.914;12.786;2022-08-18T02:04:04;10.55;;;8.48;;
15976;SDS011;8091;51.914;12.786;2022-08-18T02:06:31;9.32;;;7.95;;
15976;SDS011;8091;51.914;12.786;2022-08-18T02:08:57;10.20;;;8.45;;
15976;SDS011;8091;51.914;12.786;2022-08-18T02:11:23;11.18;;;8.35;;
15976;SDS011;8091;51.914;12.786;2022-08-18T02:13:49;9.50;;;8.00;;
15976;SDS011;8091;51.914;12.786;2022-08-18T02:16:14;13.77;;;8.15;;
15976;SDS011;8091;51.914;12.786;2022-08-18T02:18:41;12.20;;;9.10;;
15976;SDS011;8091;51.914;12.786;2022-08-18T02:21:10;11.40;;;8.45;;
15976;SDS011;8091;51.914;12.786;2022-08-18T02:23:38;12.00;;;8.15;;
15976;SDS011;8091;51.914;12.786;2022-08-18T02:26:06;13.13;;;9.05;;
15976;SDS011;8091;51.914;12.786;2022-08-18T02:28:33;9.30;;;8.40;;
15976;SDS011;8091;51.914;12.786;2022-08-18T02:31:06;10.10;;;8.43;;
15976;SDS011;8091;51.914;12.786;2022-08-18T02:35:59;9.65;;;8.52;;
15976;SDS011;8091;51.914;12.786;2022-08-18T02:38:26;11.18;;;8.68;;
15976;SDS011;8091;51.914;12.786;2022-08-18T02:40:56;9.48;;;8.60;;
15976;SDS011;8091;51.914;12.786;2022-08-18T02:43:24;10.43;;;8.70;;
15976;SDS011;8091;51.914;12.786;2022-08-18T02:45:50;15.77;;;8.80;;
15976;SDS011;8091;51.914;12.786;2022-08-18T02:48:15;11.73;;;8.95;;
15976;SDS011;8091;51.914;12.786;2022-08-18T02:50:43;12.60;;;8.00;;
15976;SDS011;8091;51.914;12.786;2022-08-18T02:53:12;9.35;;;8.38;;
15976;SDS011;8091;51.914;12.786;2022-08-18T02:55:46;9.38;;;8.38;;
15976;SDS011;8091;51.914;12.786;2022-08-18T02:58:12;11.43;;;8.73;;
15976;SDS011;8091;51.914;12.786;2022-08-18T03:00:38;9.35;;;8.43;;
15976;SDS011;8091;51.914;12.786;2022-08-18T03:03:04;9.82;;;8.70;;
15976;SDS011;8091;51.914;12.786;2022-08-18T03:05:30;11.38;;;8.07;;
15976;SDS011;8091;51.914;12.786;2022-08-18T03:07:56;11.70;;;8.43;;
15976;SDS011;8091;51.914;12.786;2022-08-18T03:10:21;11.55;;;8.55;;
15976;SDS011;8091;51.914;12.786;2022-08-18T03:12:47;12.30;;;8.48;;
15976;SDS011;8091;51.914;12.786;2022-08-18T03:15:13;10.68;;;9.07;;
15976;SDS011;8091;51.914;12.786;2022-08-18T03:17:38;9.05;;;8.15;;
15976;SDS011;8091;51.914;12.786;2022-08-18T03:20:04;11.07;;;9.20;;
15976;SDS011;8091;51.914;12.786;2022-08-18T03:22:30;10.90;;;9.05;;
15976;SDS011;8091;51.914;12.786;2022-08-18T03:24:56;10.18;;;9.05;;
15976;SDS011;8091;51.914;12.786;2022-08-18T03:27:22;11.02;;;8.77;;
15976;SDS011;8091;51.914;12.786;2022-08-18T03:29:48;15.05;;;8.80;;
15976;SDS011;8091;51.914;12.786;2022-08-18T03:32:15;13.13;;;9.63;;
15976;SDS011;8091;51.914;12.786;2022-08-18T03:34:41;10.80;;;9.70;;
15976;SDS011;8091;51.914;12.786;2022-08-18T03:37:07;9.77;;;8.77;;
15976;SDS011;8091;51.914;12.786;2022-08-18T03:39:33;9.18;;;8.27;;
15976;SDS011;8091;51.914;12.786;2022-08-18T03:41:59;10.88;;;8.60;;
15976;SDS011;8091;51.914;12.786;2022-08-18T03:44:25;11.40;;;9.25;;
15976;SDS011;8091;51.914;12.786;2022-08-18T03:46:52;10.75;;;9.00;;
15976;SDS011;8091;51.914;12.786;2022-08-18T03:49:18;13.00;;;10.02;;
15976;SDS011;8091;51.914;12.786;2022-08-18T03:51:45;10.93;;;9.80;;
15976;SDS011;8091;51.914;12.786;2022-08-18T03:54:11;14.32;;;8.95;;
15976;SDS011;8091;51.914;12.786;2022-08-18T03:56:40;12.10;;;9.80;;
15976;SDS011;8091;51.914;12.786;2022-08-18T03:59:10;12.45;;;8.80;;
15976;SDS011;8091;51.914;12.786;2022-08-18T04:01:42;14.40;;;10.38;;
15976;SDS011;8091;51.914;12.786;2022-08-18T04:04:10;10.70;;;9.65;;
15976;SDS011;8091;51.914;12.786;2022-08-18T04:06:44;12.30;;;9.63;;
15976;SDS011;8091;51.914;12.786;2022-08-18T04:09:14;12.75;;;9.27;;
15976;SDS011;8091;51.914;12.786;2022-08-18T04:11:41;10.60;;;9.60;;
15976;SDS011;8091;51.914;12.786;2022-08-18T04:14:08;13.90;;;9.45;;
15976;SDS011;8091;51.914;12.786;2022-08-18T04:16:36;9.88;;;8.82;;
15976;SDS011;8091;51.914;12.786;2022-08-18T04:19:03;11.85;;;9.30;;
15976;SDS011;8091;51.914;12.786;2022-08-18T04:21:30;9.82;;;8.85;;
15976;SDS011;8091;51.914;12.786;2022-08-18T04:23:57;11.15;;;8.73;;
15976;SDS011;8091;51.914;12.786;2022-08-18T04:26:29;9.35;;;7.93;;
15976;SDS011;8091;51.914;12.786;2022-08-18T04:28:56;9.80;;;8.68;;
15976;SDS011;8091;51.914;12.786;2022-08-18T04:31:24;10.93;;;8.63;;
15976;SDS011;8091;51.914;12.786;2022-08-18T04:33:50;11.95;;;9.32;;
15976;SDS011;8091;51.914;12.786;2022-08-18T04:36:16;10.65;;;9.32;;
15976;SDS011;8091;51.914;12.786;2022-08-18T04:38:42;9.52;;;8.57;;
15976;SDS011;8091;51.914;12.786;2022-08-18T04:41:09;10.30;;;9.10;;
15976;SDS011;8091;51.914;12.786;2022-08-18T04:43:37;11.88;;;8.77;;
15976;SDS011;8091;51.914;12.786;2022-08-18T04:46:03;11.10;;;8.60;;
15976;SDS011;8091;51.914;12.786;2022-08-18T04:48:31;10.70;;;8.30;;
15976;SDS011;8091;51.914;12.786;2022-08-18T04:53:42;13.98;;;9.35;;
15976;SDS011;8091;51.914;12.786;2022-08-18T04:56:19;9.45;;;8.57;;
15976;SDS011;8091;51.914;12.786;2022-08-18T04:58:55;12.73;;;8.23;;
15976;SDS011;8091;51.914;12.786;2022-08-18T05:01:24;12.95;;;9.35;;
15976;SDS011;8091;51.914;12.786;2022-08-18T05:03:52;16.30;;;8.60;;
15976;SDS011;8091;51.914;12.786;2022-08-18T05:06:20;9.82;;;8.82;;
15976;SDS011;8091;51.914;12.786;2022-08-18T05:09:00;10.30;;;9.00;;
15976;SDS011;8091;51.914;12.786;2022-08-18T05:11:29;11.65;;;9.25;;
15976;SDS011;8091;51.914;12.786;2022-08-18T05:13:58;14.35;;;9.70;;
15976;SDS011;8091;51.914;12.786;2022-08-18T05:16:25;10.02;;;8.75;;
15976;SDS011;8091;51.914;12.786;2022-08-18T05:18:51;63.63;;;13.45;;
15976;SDS011;8091;51.914;12.786;2022-08-18T05:21:17;16.23;;;9.27;;
15976;SDS011;8091;51.914;12.786;2022-08-18T05:23:45;10.35;;;8.82;;
15976;SDS011;8091;51.914;12.786;2022-08-18T05:26:12;15.88;;;9.52;;
15976;SDS011;8091;51.914;12.786;2022-08-18T05:28:40;9.80;;;8.70;;
15976;SDS011;8091;51.914;12.786;2022-08-18T05:31:10;11.57;;;9.13;;
15976;SDS011;8091;51.914;12.786;2022-08-18T05:33:41;12.63;;;10.20;;
15976;SDS011;8091;51.914;12.786;2022-08-18T05:41:45;12.23;;;8.80;;
15976;SDS011;8091;51.914;12.786;2022-08-18T05:44:17;14.27;;;8.98;;
15976;SDS011;8091;51.914;12.786;2022-08-18T05:47:12;15.60;;;8.90;;
15976;SDS011;8091;51.914;12.786;2022-08-18T05:49:39;10.38;;;8.55;;
15976;SDS011;8091;51.914;12.786;2022-08-18T05:52:11;12.85;;;8.38;;
15976;SDS011;8091;51.914;12.786;2022-08-18T05:54:42;11.48;;;8.43;;
15976;SDS011;8091;51.914;12.786;2022-08-18T05:57:31;10.93;;;8.00;;
15976;SDS011;8091;51.914;12.786;2022-08-18T06:00:04;15.80;;;9.07;;
15976;SDS011;8091;51.914;12.786;2022-08-18T06:02:36;16.45;;;8.38;;
15976;SDS011;8091;51.914;12.786;2022-08-18T06:05:11;19.02;;;13.40;;
15976;SDS011;8091;51.914;12.786;2022-08-18T06:07:52;13.65;;;9.63;;
15976;SDS011;8091;51.914;12.786;2022-08-18T06:10:23;14.02;;;8.98;;
15976;SDS011;8091;51.914;12.786;2022-08-18T06:12:51;16.88;;;8.63;;
15976;SDS011;8091;51.914;12.786;2022-08-18T06:37:10;10.38;;;7.32;;
15976;SDS011;8091;51.914;12.786;2022-08-18T06:39:47;12.68;;;8.32;;
15976;SDS011;8091;51.914;12.786;2022-08-18T06:42:18;8.70;;;7.85;;
15976;SDS011;8091;51.914;12.786;2022-08-18T06:44:46;10.07;;;8.05;;
15976;SDS011;8091;51.914;12.786;2022-08-18T06:47:24;9.45;;;8.55;;
15976;SDS011;8091;51.914;12.786;2022-08-18T06:50:25;10.13;;;7.97;;
15976;SDS011;8091;51.914;12.786;2022-08-18T06:53:03;11.50;;;8.38;;
15976;SDS011;8091;51.914;12.786;2022-08-18T06:55:31;11.65;;;7.78;;
15976;SDS011;8091;51.914;12.786;2022-08-18T06:58:21;8.18;;;7.38;;
15976;SDS011;8091;51.914;12.786;2022-08-18T07:00:59;10.48;;;7.70;;
15976;SDS011;8091;51.914;12.786;2022-08-18T07:06:22;10.38;;;7.65;;
15976;SDS011;8091;51.914;12.786;2022-08-18T07:08:52;7.15;;;6.40;;
15976;SDS011;8091;51.914;12.786;2022-08-18T07:13:49;8.45;;;6.50;;
15976;SDS011;8091;51.914;12.786;2022-08-18T07:16:31;10.63;;;6.35;;
15976;SDS011;8091;51.914;12.786;2022-08-18T07:19:12;11.80;;;7.28;;
15976;SDS011;8091;51.914;12.786;2022-08-18T07:21:40;16.15;;;7.05;;
15976;SDS011;8091;51.914;12.786;2022-08-18T07:24:08;14.15;;;7.07;;
15976;SDS011;8091;51.914;12.786;2022-08-18T07:29:39;8.93;;;6.80;;
15976;SDS011;8091;51.914;12.786;2022-08-18T07:32:23;18.95;;;8.77;;
15976;SDS011;8091;51.914;12.786;2022-08-18T07:34:54;8.88;;;6.88;;
15976;SDS011;8091;51.914;12.786;2022-08-18T07:37:28;8.38;;;7.20;;
15976;SDS011;8091;51.914;12.786;2022-08-18T07:40:04;10.27;;;7.63;;
15976;SDS011;8091;51.914;12.786;2022-08-18T07:42:48;10.70;;;7.07;;
15976;SDS011;8091;51.914;12.786;2022-08-18T07:45:23;9.05;;;7.05;;
15976;SDS011;8091;51.914;12.786;2022-08-18T07:48:06;16.45;;;7.13;;
15976;SDS011;8091;51.914;12.786;2022-08-18T07:59:28;9.02;;;8.07;;
15976;SDS011;8091;51.914;12.786;2022-08-18T08:04:42;13.23;;;7.75;;
15976;SDS011;8091;51.914;12.786;2022-08-18T08:07:44;11.73;;;7.88;;
15976;SDS011;8091;51.914;12.786;2022-08-18T08:18:59;11.00;;;8.10;;
15976;SDS011;8091;51.914;12.786;2022-08-18T08:22:36;13.20;;;7.97;;
15976;SDS011;8091;51.914;12.786;2022-08-18T08:27:31;9.80;;;8.57;;
15976;SDS011;8091;51.914;12.786;2022-08-18T08:30:05;11.23;;;7.85;;
15976;SDS011;8091;51.914;12.786;2022-08-18T08:35:48;11.93;;;8.52;;
15976;SDS011;8091;51.914;12.786;2022-08-18T08:43:31;10.95;;;8.15;;
15976;SDS011;8091;51.914;12.786;2022-08-18T08:46:21;13.52;;;8.65;;
15976;SDS011;8091;51.914;12.786;2022-08-18T08:51:49;12.70;;;8.30;;
15976;SDS011;8091;51.914;12.786;2022-08-18T08:54:23;8.82;;;7.90;;
15976;SDS011;8091;51.914;12.786;2022-08-18T08:56:53;14.75;;;8.65;;
15976;SDS011;8091;51.914;12.786;2022-08-18T08:59:21;9.35;;;8.35;;
15976;SDS011;8091;51.914;12.786;2022-08-18T09:09:36;14.07;;;8.30;;
15976;SDS011;8091;51.914;12.786;2022-08-18T09:17:37;9.35;;;8.43;;
15976;SDS011;8091;51.914;12.786;2022-08-18T09:23:52;11.93;;;8.40;;
15976;SDS011;8091;51.914;12.786;2022-08-18T09:26:46;15.00;;;7.70;;
15976;SDS011;8091;51.914;12.786;2022-08-18T09:32:29;8.60;;;7.75;;
15976;SDS011;8091;51.914;12.786;2022-08-18T09:35:16;9.00;;;8.20;;
15976;SDS011;8091;51.914;12.786;2022-08-18T09:40:51;8.50;;;7.60;;
15976;SDS011;8091;51.914;12.786;2022-08-18T09:51:53;15.95;;;7.88;;
15976;SDS011;8091;51.914;12.786;2022-08-18T10:02:10;10.52;;;7.68;;
15976;SDS011;8091;51.914;12.786;2022-08-18T10:07:44;8.90;;;7.53;;
15976;SDS011;8091;51.914;12.786;2022-08-18T10:18:41;11.82;;;7.80;;
15976;SDS011;8091;51.914;12.786;2022-08-18T10:21:29;15.05;;;8.27;;
15976;SDS011;8091;51.914;12.786;2022-08-18T10:24:27;15.73;;;8.27;;
15976;SDS011;8091;51.914;12.786;2022-08-18T10:37:13;9.38;;;7.53;;
15976;SDS011;8091;51.914;12.786;2022-08-18T10:39:49;14.48;;;7.75;;
15976;SDS011;8091;51.914;12.786;2022-08-18T10:42:34;11.02;;;7.90;;
15976;SDS011;8091;51.914;12.786;2022-08-18T10:45:13;10.45;;;7.57;;
15976;SDS011;8091;51.914;12.786;2022-08-18T10:48:09;7.35;;;6.45;;
15976;SDS011;8091;51.914;12.786;2022-08-18T10:50:49;10.43;;;7.35;;
15976;SDS011;8091;51.914;12.786;2022-08-18T10:56:00;12.60;;;7.22;;
15976;SDS011;8091;51.914;12.786;2022-08-18T11:04:28;7.72;;;7.03;;
15976;SDS011;8091;51.914;12.786;2022-08-18T11:07:00;8.07;;;6.93;;
15976;SDS011;8091;51.914;12.786;2022-08-18T11:09:33;7.20;;;6.50;;
15976;SDS011;8091;51.914;12.786;2022-08-18T11:12:01;9.00;;;7.30;;
15976;SDS011;8091;51.914;12.786;2022-08-18T11:17:32;7.72;;;6.55;;
15976;SDS011;8091;51.914;12.786;2022-08-18T11:20:08;12.50;;;7.38;;
15976;SDS011;8091;51.914;12.786;2022-08-18T11:22:37;7.78;;;6.47;;
15976;SDS011;8091;51.914;12.786;2022-08-18T11:25:05;8.70;;;7.05;;
15976;SDS011;8091;51.914;12.786;2022-08-18T11:27:44;13.75;;;8.25;;
15976;SDS011;8091;51.914;12.786;2022-08-18T11:30:11;13.63;;;7.43;;
15976;SDS011;8091;51.914;12.786;2022-08-18T11:32:38;10.27;;;7.43;;
15976;SDS011;8091;51.914;12.786;2022-08-18T11:40:19;9.57;;;7.18;;
15976;SDS011;8091;51.914;12.786;2022-08-18T11:48:36;13.88;;;7.63;;
15976;SDS011;8091;51.914;12.786;2022-08-18T11:51:16;7.93;;;6.63;;
15976;SDS011;8091;51.914;12.786;2022-08-18T12:01:26;8.20;;;7.05;;
15976;SDS011;8091;51.914;12.786;2022-08-18T12:03:52;12.07;;;7.32;;
15976;SDS011;8091;51.914;12.786;2022-08-18T12:06:24;9.23;;;7.55;;
15976;SDS011;8091;51.914;12.786;2022-08-18T12:08:56;8.15;;;6.57;;
15976;SDS011;8091;51.914;12.786;2022-08-18T12:11:36;7.68;;;6.95;;
15976;SDS011;8091;51.914;12.786;2022-08-18T12:14:17;9.68;;;6.75;;
15976;SDS011;8091;51.914;12.786;2022-08-18T12:16:45;14.82;;;7.40;;
15976;SDS011;8091;51.914;12.786;2022-08-18T12:19:12;7.82;;;7.03;;
15976;SDS011;8091;51.914;12.786;2022-08-18T12:21:43;7.70;;;6.90;;
15976;SDS011;8091;51.914;12.786;2022-08-18T12:26:49;10.90;;;6.57;;
15976;SDS011;8091;51.914;12.786;2022-08-18T12:29:16;12.05;;;6.40;;
15976;SDS011;8091;51.914;12.786;2022-08-18T12:31:46;7.70;;;6.25;;
15976;SDS011;8091;51.914;12.786;2022-08-18T12:34:15;7.45;;;5.93;;
15976;SDS011;8091;51.914;12.786;2022-08-18T12:36:41;6.68;;;6.07;;
15976;SDS011;8091;51.914;12.786;2022-08-18T12:39:07;6.05;;;5.47;;
15976;SDS011;8091;51.914;12.786;2022-08-18T12:41:32;6.38;;;5.22;;
15976;SDS011;8091;51.914;12.786;2022-08-18T12:43:58;8.27;;;5.57;;
15976;SDS011;8091;51.914;12.786;2022-08-18T12:46:24;9.35;;;6.10;;
15976;SDS011;8091;51.914;12.786;2022-08-18T12:48:49;5.85;;;5.13;;
15976;SDS011;8091;51.914;12.786;2022-08-18T12:51:15;7.68;;;5.20;;
15976;SDS011;8091;51.914;12.786;2022-08-18T12:53:40;8.32;;;5.22;;
15976;SDS011;8091;51.914;12.786;2022-08-18T12:56:07;11.70;;;6.00;;
15976;SDS011;8091;51.914;12.786;2022-08-18T12:58:46;7.43;;;5.55;;
15976;SDS011;8091;51.914;12.786;2022-08-18T13:01:14;7.55;;;5.60;;
15976;SDS011;8091;51.914;12.786;2022-08-18T13:03:40;6.88;;;5.20;;
15976;SDS011;8091;51.914;12.786;2022-08-18T13:06:06;6.85;;;5.45;;
15976;SDS011;8091;51.914;12.786;2022-08-18T13:08:31;7.35;;;5.38;;
15976;SDS011;8091;51.914;12.786;2022-08-18T13:10:57;6.85;;;5.57;;
15976;SDS011;8091;51.914;12.786;2022-08-18T13:13:24;6.63;;;5.60;;
15976;SDS011;8091;51.914;12.786;2022-08-18T13:15:50;5.68;;;5.18;;
15976;SDS011;8091;51.914;12.786;2022-08-18T13:18:18;6.72;;;5.60;;
15976;SDS011;8091;51.914;12.786;2022-08-18T13:20:44;8.32;;;5.88;;
15976;SDS011;8091;51.914;12.786;2022-08-18T13:23:09;6.68;;;5.32;;
15976;SDS011;8091;51.914;12.786;2022-08-18T13:25:35;7.55;;;5.28;;
15976;SDS011;8091;51.914;12.786;2022-08-18T13:28:02;7.78;;;4.75;;
15976;SDS011;8091;51.914;12.786;2022-08-18T13:30:28;7.28;;;4.78;;
15976;SDS011;8091;51.914;12.786;2022-08-18T13:32:55;7.68;;;5.13;;
15976;SDS011;8091;51.914;12.786;2022-08-18T13:35:21;5.60;;;5.10;;
15976;SDS011;8091;51.914;12.786;2022-08-18T13:37:46;8.65;;;5.30;;
15976;SDS011;8091;51.914;12.786;2022-08-18T13:40:12;9.30;;;5.50;;
15976;SDS011;8091;51.914;12.786;2022-08-18T13:42:42;7.65;;;5.25;;
15976;SDS011;8091;51.914;12.786;2022-08-18T13:45:10;5.60;;;5.07;;
15976;SDS011;8091;51.914;12.786;2022-08-18T13:47:37;10.07;;;5.30;;
15976;SDS011;8091;51.914;12.786;2022-08-18T13:50:03;6.30;;;5.30;;
15976;SDS011;8091;51.914;12.786;2022-08-18T13:52:29;6.85;;;5.13;;
15976;SDS011;8091;51.914;12.786;2022-08-18T13:54:55;8.05;;;5.13;;
15976;SDS011;8091;51.914;12.786;2022-08-18T13:57:20;8.75;;;5.30;;
15976;SDS011;8091;51.914;12.786;2022-08-18T13:59:46;7.13;;;5.03;;
15976;SDS011;8091;51.914;12.786;2022-08-18T14:02:11;8.82;;;5.00;;
15976;SDS011;8091;51.914;12.786;2022-08-18T14:04:37;7.47;;;5.20;;
15976;SDS011;8091;51.914;12.786;2022-08-18T14:07:03;5.50;;;4.55;;
15976;SDS011;8091;51.914;12.786;2022-08-18T14:09:30;6.03;;;5.45;;
15976;SDS011;8091;51.914;12.786;2022-08-18T14:11:57;6.88;;;5.32;;
15976;SDS011;8091;51.914;12.786;2022-08-18T14:14:23;6.82;;;5.03;;
15976;SDS011;8091;51.914;12.786;2022-08-18T14:16:48;9.90;;;5.35;;
15976;SDS011;8091;51.914;12.786;2022-08-18T14:19:14;8.55;;;5.07;;
15976;SDS011;8091;51.914;12.786;2022-08-18T14:21:58;8.13;;;5.60;;
15976;SDS011;8091;51.914;12.786;2022-08-18T14:24:43;7.15;;;5.35;;
15976;SDS011;8091;51.914;12.786;2022-08-18T14:29:58;13.27;;;5.10;;
15976;SDS011;8091;51.914;12.786;2022-08-18T14:32:25;7.68;;;5.25;;
15976;SDS011;8091;51.914;12.786;2022-08-18T14:34:53;9.38;;;5.28;;
15976;SDS011;8091;51.914;12.786;2022-08-18T14:37:22;8.65;;;5.22;;
15976;SDS011;8091;51.914;12.786;2022-08-18T14:39:48;10.07;;;5.63;;
15976;SDS011;8091;51.914;12.786;2022-08-18T14:42:15;8.45;;;5.50;;
15976;SDS011;8091;51.914;12.786;2022-08-18T14:44:42;9.07;;;5.47;;
15976;SDS011;8091;51.914;12.786;2022-08-18T14:47:09;7.72;;;5.25;;
15976;SDS011;8091;51.914;12.786;2022-08-18T14:49:34;9.10;;;5.95;;
15976;SDS011;8091;51.914;12.786;2022-08-18T14:52:00;6.38;;;5.40;;
15976;SDS011;8091;51.914;12.786;2022-08-18T14:54:29;8.63;;;6.05;;
15976;SDS011;8091;51.914;12.786;2022-08-18T14:56:56;8.38;;;6.82;;
15976;SDS011;8091;51.914;12.786;2022-08-18T14:59:29;13.25;;;6.70;;
15976;SDS011;8091;51.914;12.786;2022-08-18T15:01:56;9.63;;;6.53;;
15976;SDS011;8091;51.914;12.786;2022-08-18T15:04:22;14.57;;;7.75;;
15976;SDS011;8091;51.914;12.786;2022-08-18T15:06:49;18.90;;;7.82;;
15976;SDS011;8091;51.914;12.786;2022-08-18T15:09:15;10.43;;;6.18;;
15976;SDS011;8091;51.914;12.786;2022-08-18T15:11:41;13.68;;;7.28;;
15976;SDS011;8091;51.914;12.786;2022-08-18T15:14:06;10.70;;;6.28;;
15976;SDS011;8091;51.914;12.786;2022-08-18T15:16:33;9.88;;;6.57;;
15976;SDS011;8091;51.914;12.786;2022-08-18T15:19:00;7.70;;;6.07;;
15976;SDS011;8091;51.914;12.786;2022-08-18T15:21:27;18.10;;;7.15;;
15976;SDS011;8091;51.914;12.786;2022-08-18T15:24:12;6.63;;;5.80;;
15976;SDS011;8091;51.914;12.786;2022-08-18T15:26:56;6.18;;;5.57;;
15976;SDS011;8091;51.914;12.786;2022-08-18T15:29:23;9.38;;;5.88;;
15976;SDS011;8091;51.914;12.786;2022-08-18T15:31:48;7.00;;;6.32;;
15976;SDS011;8091;51.914;12.786;2022-08-18T15:34:15;7.65;;;6.03;;
15976;SDS011;8091;51.914;12.786;2022-08-18T15:36:42;8.15;;;5.80;;
15976;SDS011;8091;51.914;12.786;2022-08-18T15:39:07;9.55;;;6.25;;
15976;SDS011;8091;51.914;12.786;2022-08-18T15:41:37;7.47;;;5.47;;
15976;SDS011;8091;51.914;12.786;2022-08-18T15:44:05;6.70;;;5.38;;
15976;SDS011;8091;51.914;12.786;2022-08-18T15:46:34;8.65;;;5.70;;
15976;SDS011;8091;51.914;12.786;2022-08-18T15:49:01;6.80;;;5.90;;
15976;SDS011;8091;51.914;12.786;2022-08-18T15:51:34;8.52;;;5.82;;
15976;SDS011;8091;51.914;12.786;2022-08-18T15:54:02;6.93;;;5.40;;
15976;SDS011;8091;51.914;12.786;2022-08-18T15:56:29;7.43;;;5.95;;
15976;SDS011;8091;51.914;12.786;2022-08-18T15:58:55;7.38;;;5.95;;
15976;SDS011;8091;51.914;12.786;2022-08-18T16:01:23;6.97;;;5.90;;
15976;SDS011;8091;51.914;12.786;2022-08-18T16:03:50;6.85;;;6.25;;
15976;SDS011;8091;51.914;12.786;2022-08-18T16:06:21;8.75;;;6.68;;
15976;SDS011;8091;51.914;12.786;2022-08-18T16:08:50;9.43;;;6.28;;
15976;SDS011;8091;51.914;12.786;2022-08-18T16:11:16;9.15;;;5.57;;
15976;SDS011;8091;51.914;12.786;2022-08-18T16:13:43;8.32;;;5.68;;
15976;SDS011;8091;51.914;12.786;2022-08-18T16:16:12;6.20;;;5.60;;
15976;SDS011;8091;51.914;12.786;2022-08-18T16:18:40;8.25;;;6.22;;
15976;SDS011;8091;51.914;12.786;2022-08-18T16:21:07;7.07;;;5.97;;
15976;SDS011;8091;51.914;12.786;2022-08-18T16:23:35;8.93;;;5.95;;
15976;SDS011;8091;51.914;12.786;2022-08-18T16:26:06;8.15;;;6.00;;
15976;SDS011;8091;51.914;12.786;2022-08-18T16:28:32;7.53;;;6.35;;
15976;SDS011;8091;51.914;12.786;2022-08-18T16:30:58;12.57;;;6.05;;
15976;SDS011;8091;51.914;12.786;2022-08-18T16:33:25;10.38;;;6.30;;
15976;SDS011;8091;51.914;12.786;2022-08-18T16:35:50;7.35;;;6.65;;
15976;SDS011;8091;51.914;12.786;2022-08-18T16:38:16;7.60;;;6.05;;
15976;SDS011;8091;51.914;12.786;2022-08-18T16:40:43;7.05;;;6.45;;
15976;SDS011;8091;51.914;12.786;2022-08-18T16:43:09;7.68;;;6.97;;
15976;SDS011;8091;51.914;12.786;2022-08-18T16:45:36;8.77;;;7.07;;
15976;SDS011;8091;51.914;12.786;2022-08-18T16:48:03;8.85;;;6.25;;
15976;SDS011;8091;51.914;12.786;2022-08-18T16:50:32;11.27;;;6.22;;
15976;SDS011;8091;51.914;12.786;2022-08-18T16:52:59;10.18;;;7.05;;
15976;SDS011;8091;51.914;12.786;2022-08-18T16:55:25;8.63;;;6.45;;
15976;SDS011;8091;51.914;12.786;2022-08-18T16:57:50;7.32;;;6.18;;
15976;SDS011;8091;51.914;12.786;2022-08-18T17:00:35;7.47;;;6.75;;
15976;SDS011;8091;51.914;12.786;2022-08-18T17:03:20;8.10;;;6.50;;
15976;SDS011;8091;51.914;12.786;2022-08-18T17:06:11;8.05;;;6.18;;
15976;SDS011;8091;51.914;12.786;2022-08-18T17:08:39;10.18;;;6.60;;
15976;SDS011;8091;51.914;12.786;2022-08-18T17:11:07;6.97;;;6.28;;
15976;SDS011;8091;51.914;12.786;2022-08-18T17:13:35;7.75;;;6.88;;
15976;SDS011;8091;51.914;12.786;2022-08-18T17:16:03;8.15;;;6.57;;
15976;SDS011;8091;51.914;12.786;2022-08-18T17:18:28;8.00;;;6.55;;
15976;SDS011;8091;51.914;12.786;2022-08-18T17:20:55;8.73;;;6.38;;
15976;SDS011;8091;51.914;12.786;2022-08-18T17:23:24;8.13;;;6.53;;
15976;SDS011;8091;51.914;12.786;2022-08-18T17:25:50;7.00;;;6.38;;
15976;SDS011;8091;51.914;12.786;2022-08-18T17:28:16;8.23;;;7.00;;
15976;SDS011;8091;51.914;12.786;2022-08-18T17:30:45;11.98;;;6.93;;
15976;SDS011;8091;51.914;12.786;2022-08-18T17:33:18;7.72;;;6.70;;
15976;SDS011;8091;51.914;12.786;2022-08-18T17:35:48;7.38;;;6.68;;
15976;SDS011;8091;51.914;12.786;2022-08-18T17:38:17;7.10;;;6.47;;
15976;SDS011;8091;51.914;12.786;2022-08-18T17:40:51;11.60;;;6.95;;
15976;SDS011;8091;51.914;12.786;2022-08-18T17:43:21;7.25;;;6.55;;
15976;SDS011;8091;51.914;12.786;2022-08-18T17:48:50;8.40;;;6.60;;
15976;SDS011;8091;51.914;12.786;2022-08-18T17:51:18;7.65;;;6.85;;
15976;SDS011;8091;51.914;12.786;2022-08-18T17:56:37;8.85;;;5.95;;
15976;SDS011;8091;51.914;12.786;2022-08-18T18:01:35;9.98;;;6.72;;